Time;durP1;ratioP1;P1;durP2;ratioP2;P2;SDS_P1;SDS_P2;PMS_P1;PMS_P2;Temp;Humidity;BMP_temperature;BMP_pressure;BME280_temperature;BME280_humidity;BME280_pressure;Samples;Min_cycle;Max_cycle;Signal;HPM_P1;HPM_P2
2022/05/19 00:01:01;;;;;;;1.08;0.57;;;;;;;;;;5028381;28;20036;-81
2022/05/19 00:03:23;;;;;;;1.67;0.93;;;;;;;;;;4993427;28;20494;-81
2022/05/19 00:05:49;;;;;;;1.13;0.50;;;;;;;;;;4993084;28;20036;-81
2022/05/19 00:08:14;;;;;;;1.00;0.60;;;;;;;;;;4975580;28;20044;-81
2022/05/19 00:10:39;;;;;;;1.67;1.00;;;;;;;;;;4971595;28;20153;-81
2022/05/19 00:13:05;;;;;;;1.65;0.85;;;;;;;;;;5010286;28;20095;-82
2022/05/19 00:15:30;;;;;;;4.35;0.90;;;;;;;;;;4977117;28;20038;-81
2022/05/19 00:17:55;;;;;;;0.95;0.57;;;;;;;;;;4975817;28;20038;-82
2022/05/19 00:20:21;;;;;;;1.20;0.73;;;;;;;;;;4976322;28;20072;-82
2022/05/19 00:22:46;;;;;;;2.60;1.50;;;;;;;;;;4993137;28;20092;-82
2022/05/19 00:25:14;;;;;;;1.67;0.80;;;;;;;;;;4977124;28;20046;-81
2022/05/19 00:27:42;;;;;;;0.63;0.43;;;;;;;;;;4976040;28;20042;-82
2022/05/19 00:30:08;;;;;;;1.02;0.73;;;;;;;;;;4963137;28;20090;-82
2022/05/19 00:32:33;;;;;;;1.20;0.63;;;;;;;;;;4993479;28;20104;-81
2022/05/19 00:34:58;;;;;;;0.85;0.60;;;;;;;;;;4981369;28;20121;-82
2022/05/19 00:37:24;;;;;;;1.50;0.93;;;;;;;;;;4993455;28;20065;-81
2022/05/19 00:39:51;;;;;;;1.63;1.00;;;;;;;;;;4980962;28;20041;-81
2022/05/19 00:45:02;;;;;;;6.28;0.77;;;;;;;;;;4995485;28;20033;-82
2022/05/19 00:47:34;;;;;;;1.53;0.97;;;;;;;;;;5007150;28;20060;-82
2022/05/19 00:50:02;;;;;;;1.23;0.63;;;;;;;;;;4994134;28;20042;-82
2022/05/19 00:52:39;;;;;;;1.75;0.77;;;;;;;;;;5025016;28;20037;-82
2022/05/19 00:55:15;;;;;;;0.80;0.63;;;;;;;;;;5006695;28;20056;-82
2022/05/19 00:57:46;;;;;;;0.85;0.57;;;;;;;;;;4990456;28;20181;-81
2022/05/19 01:00:17;;;;;;;2.80;1.30;;;;;;;;;;4975850;28;20038;-80
2022/05/19 01:02:47;;;;;;;1.00;0.63;;;;;;;;;;4974228;28;20030;-81
2022/05/19 01:05:15;;;;;;;1.00;0.65;;;;;;;;;;4981395;28;20551;-82
2022/05/19 01:07:55;;;;;;;2.75;0.75;;;;;;;;;;4974415;28;20038;-81
2022/05/19 01:10:21;;;;;;;1.13;0.63;;;;;;;;;;5009330;28;20068;-82
2022/05/19 01:12:48;;;;;;;0.90;0.60;;;;;;;;;;4977417;28;20041;-82
2022/05/19 01:15:14;;;;;;;1.88;1.15;;;;;;;;;;4992791;28;20022;-81
2022/05/19 01:17:39;;;;;;;1.40;1.00;;;;;;;;;;4991324;28;20400;-82
2022/05/19 01:20:09;;;;;;;1.45;0.88;;;;;;;;;;4995346;28;20125;-82
2022/05/19 01:23:11;;;;;;;1.05;0.63;;;;;;;;;;4989223;28;20125;-81
2022/05/19 01:25:45;;;;;;;2.40;0.77;;;;;;;;;;5030655;28;20072;-82
2022/05/19 01:28:10;;;;;;;1.13;0.70;;;;;;;;;;4998777;28;21017;-82
2022/05/19 01:30:36;;;;;;;3.05;1.05;;;;;;;;;;4994080;28;20030;-82
2022/05/19 01:33:04;;;;;;;1.77;1.02;;;;;;;;;;4979728;28;20041;-82
2022/05/19 01:35:33;;;;;;;0.88;0.60;;;;;;;;;;5013066;28;20077;-83
2022/05/19 01:38:00;;;;;;;4.38;0.95;;;;;;;;;;4994300;28;20438;-82
2022/05/19 01:40:34;;;;;;;1.17;1.00;;;;;;;;;;4991289;28;20048;-81
2022/05/19 01:43:11;;;;;;;1.63;0.88;;;;;;;;;;5010258;28;20438;-82
2022/05/19 01:46:07;;;;;;;1.33;0.80;;;;;;;;;;4979257;28;20146;-82
2022/05/19 01:48:50;;;;;;;0.68;0.47;;;;;;;;;;4999271;28;20048;-82
2022/05/19 01:51:26;;;;;;;0.57;0.50;;;;;;;;;;4993435;28;20029;-81
2022/05/19 01:54:19;;;;;;;1.50;0.88;;;;;;;;;;4997407;28;20527;-81
2022/05/19 01:57:07;;;;;;;0.82;0.60;;;;;;;;;;4997249;28;20038;-82
2022/05/19 01:59:40;;;;;;;1.08;0.70;;;;;;;;;;4978877;28;20044;-81
2022/05/19 02:02:09;;;;;;;1.02;0.60;;;;;;;;;;4984925;28;20128;-81
2022/05/19 02:04:39;;;;;;;1.50;0.90;;;;;;;;;;5007395;28;20045;-81
2022/05/19 02:07:10;;;;;;;1.20;0.80;;;;;;;;;;4998088;28;20056;-81
2022/05/19 02:09:40;;;;;;;1.77;1.10;;;;;;;;;;5014276;28;20163;-81
2022/05/19 02:12:05;;;;;;;1.52;0.98;;;;;;;;;;4998739;28;20110;-81
2022/05/19 02:14:33;;;;;;;1.15;0.80;;;;;;;;;;4999094;28;20091;-82
2022/05/19 02:16:59;;;;;;;1.45;1.02;;;;;;;;;;4988717;28;20041;-81
2022/05/19 02:19:27;;;;;;;2.08;1.15;;;;;;;;;;5003226;28;20026;-81
2022/05/19 02:21:53;;;;;;;0.40;0.38;;;;;;;;;;4991881;28;20078;-82
2022/05/19 02:24:22;;;;;;;1.42;0.85;;;;;;;;;;5000107;28;20438;-83
2022/05/19 02:26:47;;;;;;;1.75;0.60;;;;;;;;;;5030432;28;20046;-82
2022/05/19 02:29:17;;;;;;;1.40;0.82;;;;;;;;;;4999940;28;20492;-83
2022/05/19 02:31:46;;;;;;;1.42;0.95;;;;;;;;;;4997804;28;20039;-82
2022/05/19 02:34:12;;;;;;;2.40;1.25;;;;;;;;;;4999121;28;20082;-83
2022/05/19 02:36:37;;;;;;;1.50;0.98;;;;;;;;;;5014420;28;20112;-82
2022/05/19 02:39:03;;;;;;;1.45;0.80;;;;;;;;;;5013157;28;20634;-82
2022/05/19 02:41:28;;;;;;;3.97;1.45;;;;;;;;;;4997501;28;20353;-82
2022/05/19 02:43:53;;;;;;;1.27;0.70;;;;;;;;;;4998244;28;20037;-82
2022/05/19 02:46:19;;;;;;;1.60;0.80;;;;;;;;;;4977948;28;20492;-82
2022/05/19 02:48:44;;;;;;;1.05;0.65;;;;;;;;;;4978087;28;20440;-82
2022/05/19 02:51:10;;;;;;;1.02;0.88;;;;;;;;;;4980546;28;20148;-83
2022/05/19 02:53:35;;;;;;;2.67;1.45;;;;;;;;;;4983180;28;20057;-82
2022/05/19 02:56:00;;;;;;;2.42;1.48;;;;;;;;;;5010126;28;20068;-82
2022/05/19 02:58:26;;;;;;;0.80;0.70;;;;;;;;;;4979873;28;20034;-82
2022/05/19 03:00:51;;;;;;;1.27;0.70;;;;;;;;;;4988833;28;20045;-81
2022/05/19 03:03:17;;;;;;;1.38;1.00;;;;;;;;;;5010343;28;20136;-81
2022/05/19 03:05:43;;;;;;;1.30;0.77;;;;;;;;;;5012233;28;20087;-82
2022/05/19 03:08:09;;;;;;;1.30;0.82;;;;;;;;;;4999669;28;20065;-82
2022/05/19 03:10:36;;;;;;;1.48;0.88;;;;;;;;;;4997148;28;20041;-82
2022/05/19 03:13:01;;;;;;;2.35;1.30;;;;;;;;;;4998402;28;20449;-82
2022/05/19 03:15:27;;;;;;;1.35;1.00;;;;;;;;;;4997452;28;20113;-82
2022/05/19 03:17:52;;;;;;;0.70;0.45;;;;;;;;;;4996866;28;20079;-82
2022/05/19 03:20:18;;;;;;;1.75;0.73;;;;;;;;;;4996062;28;20485;-82
2022/05/19 03:22:44;;;;;;;0.30;0.30;;;;;;;;;;4997212;28;20098;-82
2022/05/19 03:25:09;;;;;;;1.55;0.85;;;;;;;;;;4997202;28;20036;-81
2022/05/19 03:27:36;;;;;;;1.58;0.80;;;;;;;;;;4997467;28;20039;-82
2022/05/19 03:30:03;;;;;;;1.00;0.80;;;;;;;;;;5014889;28;20055;-81
2022/05/19 03:32:28;;;;;;;1.17;0.83;;;;;;;;;;5008441;28;20033;-81
2022/05/19 03:34:54;;;;;;;1.20;0.70;;;;;;;;;;5012985;28;20346;-81
2022/05/19 03:37:19;;;;;;;1.25;0.73;;;;;;;;;;4997455;28;20087;-82
2022/05/19 03:39:44;;;;;;;1.13;0.70;;;;;;;;;;4996777;28;20072;-79
2022/05/19 03:42:10;;;;;;;0.93;0.63;;;;;;;;;;4996665;28;20033;-79
2022/05/19 03:44:36;;;;;;;1.63;0.82;;;;;;;;;;4997707;28;20052;-78
2022/05/19 03:47:03;;;;;;;1.33;0.55;;;;;;;;;;5011973;28;20045;-79
2022/05/19 03:49:28;;;;;;;1.45;0.93;;;;;;;;;;5012914;28;20043;-80
2022/05/19 03:51:54;;;;;;;0.73;0.50;;;;;;;;;;4997740;28;20041;-80
2022/05/19 03:54:20;;;;;;;1.70;1.05;;;;;;;;;;4996790;28;20526;-80
2022/05/19 03:56:45;;;;;;;1.58;0.80;;;;;;;;;;5011991;28;20041;-79
2022/05/19 03:59:10;;;;;;;0.63;0.50;;;;;;;;;;5013496;28;20087;-80
2022/05/19 04:01:36;;;;;;;1.85;1.20;;;;;;;;;;4995029;28;20048;-78
2022/05/19 04:04:02;;;;;;;1.27;0.85;;;;;;;;;;5014034;28;20087;-79
2022/05/19 04:06:30;;;;;;;0.70;0.50;;;;;;;;;;4995189;28;20063;-80
2022/05/19 04:08:58;;;;;;;0.45;0.32;;;;;;;;;;5029009;28;20059;-79
2022/05/19 04:11:23;;;;;;;1.67;1.17;;;;;;;;;;4995773;28;20051;-80
2022/05/19 04:13:48;;;;;;;1.08;0.55;;;;;;;;;;5011816;28;20034;-80
2022/05/19 04:16:14;;;;;;;0.85;0.55;;;;;;;;;;4993656;28;21225;-79
2022/05/19 04:18:39;;;;;;;0.90;0.60;;;;;;;;;;5012116;28;20041;-80
2022/05/19 04:21:05;;;;;;;0.68;0.50;;;;;;;;;;5011144;28;20071;-79
2022/05/19 04:23:30;;;;;;;0.88;0.60;;;;;;;;;;4995367;28;20049;-79
2022/05/19 04:25:56;;;;;;;1.17;0.88;;;;;;;;;;5013136;28;20042;-78
2022/05/19 04:28:21;;;;;;;0.52;0.40;;;;;;;;;;5013222;28;20112;-79
2022/05/19 04:30:47;;;;;;;1.48;0.57;;;;;;;;;;4995135;28;20037;-79
2022/05/19 04:33:15;;;;;;;1.52;0.93;;;;;;;;;;4994955;28;20037;-80
2022/05/19 04:35:40;;;;;;;0.90;0.68;;;;;;;;;;5010294;28;20025;-79
2022/05/19 04:38:08;;;;;;;1.30;0.73;;;;;;;;;;5010409;28;20041;-79
2022/05/19 04:40:38;;;;;;;0.82;0.50;;;;;;;;;;5028548;28;20511;-79
2022/05/19 04:43:05;;;;;;;1.15;0.80;;;;;;;;;;5010776;28;20477;-79
2022/05/19 04:45:31;;;;;;;0.73;0.52;;;;;;;;;;5010821;28;20034;-79
2022/05/19 04:47:56;;;;;;;0.63;0.47;;;;;;;;;;5012180;28;20041;-79
2022/05/19 04:50:21;;;;;;;1.05;0.60;;;;;;;;;;4994768;28;20544;-79
2022/05/19 04:52:47;;;;;;;0.98;0.65;;;;;;;;;;5011766;28;20075;-79
2022/05/19 04:55:12;;;;;;;4.28;0.47;;;;;;;;;;5011000;28;20079;-78
2022/05/19 04:57:38;;;;;;;1.40;0.63;;;;;;;;;;5010745;28;20547;-80
2022/05/19 05:00:25;;;;;;;5.55;1.38;;;;;;;;;;4996739;28;20034;-80
2022/05/19 05:02:51;;;;;;;1.13;0.73;;;;;;;;;;4918777;29;20043;-80
2022/05/19 05:05:16;;;;;;;1.38;1.00;;;;;;;;;;4892316;29;20038;-79
2022/05/19 05:07:41;;;;;;;1.35;0.75;;;;;;;;;;4904979;29;20110;-79
2022/05/19 05:10:07;;;;;;;1.15;0.60;;;;;;;;;;4895050;29;20592;-82
2022/05/19 05:12:32;;;;;;;1.52;0.70;;;;;;;;;;4920372;29;20044;-83
2022/05/19 05:14:58;;;;;;;0.90;0.60;;;;;;;;;;4917845;29;20586;-82
2022/05/19 05:17:23;;;;;;;0.95;0.57;;;;;;;;;;4911322;29;20036;-83
2022/05/19 05:19:49;;;;;;;0.85;0.55;;;;;;;;;;4890439;29;20046;-83
2022/05/19 05:22:14;;;;;;;1.58;0.60;;;;;;;;;;4909651;29;22129;-82
2022/05/19 05:24:40;;;;;;;2.40;1.17;;;;;;;;;;4915816;29;20046;-82
2022/05/19 05:27:05;;;;;;;0.80;0.57;;;;;;;;;;4889485;29;20051;-82
2022/05/19 05:29:31;;;;;;;0.88;0.50;;;;;;;;;;4903438;29;20040;-83
2022/05/19 05:31:57;;;;;;;3.05;0.80;;;;;;;;;;4886720;29;20095;-82
2022/05/19 05:34:26;;;;;;;1.25;0.75;;;;;;;;;;4886912;29;20043;-79
2022/05/19 05:36:51;;;;;;;7.15;0.60;;;;;;;;;;4901824;29;20067;-81
2022/05/19 05:39:16;;;;;;;0.73;0.50;;;;;;;;;;4938641;28;20064;-80
2022/05/19 05:41:42;;;;;;;0.50;0.40;;;;;;;;;;4998201;28;20366;-81
2022/05/19 05:44:07;;;;;;;1.90;0.75;;;;;;;;;;5015177;28;20057;-79
2022/05/19 05:46:32;;;;;;;1.38;0.55;;;;;;;;;;4988186;28;20057;-79
2022/05/19 05:48:58;;;;;;;0.82;0.50;;;;;;;;;;5027110;28;20497;-80
2022/05/19 05:51:23;;;;;;;1.20;0.75;;;;;;;;;;4978274;28;20037;-80
2022/05/19 05:53:48;;;;;;;0.85;0.40;;;;;;;;;;5013899;28;20034;-86
2022/05/19 05:56:16;;;;;;;1.20;0.77;;;;;;;;;;4978339;28;20034;-87
2022/05/19 05:58:42;;;;;;;1.45;0.60;;;;;;;;;;5009449;28;20046;-85
2022/05/19 06:01:10;;;;;;;13.05;1.40;;;;;;;;;;4979660;28;20139;-83
2022/05/19 06:03:35;;;;;;;;;;;;;;;;;;4983995;28;20037;-85
2022/05/19 06:06:02;;;;;;;1.00;0.65;;;;;;;;;;4977073;28;19921;-84
2022/05/19 06:08:27;;;;;;;1.05;0.60;;;;;;;;;;4985252;28;21030;-84
2022/05/19 06:10:56;;;;;;;1.17;0.65;;;;;;;;;;4995576;28;20038;-85
2022/05/19 06:13:21;;;;;;;18.63;2.28;;;;;;;;;;4994554;28;20043;-86
2022/05/19 06:15:47;;;;;;;1.35;0.70;;;;;;;;;;5000157;28;20052;-85
2022/05/19 06:18:13;;;;;;;0.63;0.35;;;;;;;;;;5014121;28;20040;-89
2022/05/19 06:20:39;;;;;;;0.90;0.55;;;;;;;;;;4999033;28;20416;-90
2022/05/19 06:23:06;;;;;;;1.30;0.70;;;;;;;;;;5029437;28;20037;-88
2022/05/19 06:25:32;;;;;;;2.67;0.88;;;;;;;;;;5029937;28;20033;-89
2022/05/19 06:27:59;;;;;;;1.55;0.68;;;;;;;;;;5014367;28;20034;-87
2022/05/19 06:30:25;;;;;;;1.55;0.77;;;;;;;;;;5014860;28;20029;-89
2022/05/19 06:32:51;;;;;;;0.60;0.40;;;;;;;;;;5012752;28;20795;-89
2022/05/19 06:35:20;;;;;;;4.50;0.77;;;;;;;;;;4997528;28;20033;-89
2022/05/19 06:37:46;;;;;;;1.05;0.63;;;;;;;;;;5015802;28;20041;-89
2022/05/19 06:40:13;;;;;;;1.05;0.70;;;;;;;;;;4997272;28;20038;-90
2022/05/19 06:42:39;;;;;;;;;;;;;;;;;;5013438;28;20053;-89
2022/05/19 06:45:05;;;;;;;1.55;0.80;;;;;;;;;;4997362;28;19917;-89
2022/05/19 06:47:30;;;;;;;0.40;0.30;;;;;;;;;;4997766;28;20033;-90
2022/05/19 06:49:56;;;;;;;1.70;0.50;;;;;;;;;;4997157;28;20034;-89
2022/05/19 06:52:24;;;;;;;1.20;0.70;;;;;;;;;;5015477;28;20064;-89
2022/05/19 06:54:53;;;;;;;1.00;0.60;;;;;;;;;;4997206;28;20033;-88
2022/05/19 06:57:20;;;;;;;1.10;0.60;;;;;;;;;;5013813;28;20056;-88
2022/05/19 06:59:46;;;;;;;1.02;0.65;;;;;;;;;;4996605;28;21132;-89
2022/05/19 07:02:12;;;;;;;1.25;0.60;;;;;;;;;;4996371;28;20025;-89
2022/05/19 07:04:37;;;;;;;1.35;0.75;;;;;;;;;;4996950;28;20095;-89
2022/05/19 07:07:04;;;;;;;1.17;0.75;;;;;;;;;;5000200;28;20121;-88
2022/05/19 07:09:30;;;;;;;0.63;0.32;;;;;;;;;;4997066;28;20120;-88
2022/05/19 07:11:56;;;;;;;0.85;0.40;;;;;;;;;;4997703;28;20132;-87
2022/05/19 07:14:21;;;;;;;15.07;0.60;;;;;;;;;;4997907;28;20148;-87
2022/05/19 07:16:48;;;;;;;0.80;0.50;;;;;;;;;;4996358;28;20037;-88
2022/05/19 07:21:59;;;;;;;1.25;0.60;;;;;;;;;;5016080;28;20039;-89
2022/05/19 07:24:24;;;;;;;0.90;0.52;;;;;;;;;;5014690;28;20048;-88
2022/05/19 07:26:52;;;;;;;0.85;0.50;;;;;;;;;;4991601;28;20119;-88
2022/05/19 07:29:18;;;;;;;1.20;0.50;;;;;;;;;;4996419;28;20033;-89
2022/05/19 07:31:44;;;;;;;0.57;0.38;;;;;;;;;;4995848;28;20156;-88
2022/05/19 07:34:11;;;;;;;0.70;0.40;;;;;;;;;;4997057;28;20046;-88
2022/05/19 07:36:36;;;;;;;3.05;0.55;;;;;;;;;;4997055;28;20037;-88
2022/05/19 07:39:03;;;;;;;4.18;0.82;;;;;;;;;;4995959;28;20033;-87
2022/05/19 07:41:29;;;;;;;1.50;0.80;;;;;;;;;;4998979;28;20439;-88
2022/05/19 07:43:58;;;;;;;2.40;0.88;;;;;;;;;;5014954;28;20151;-88
2022/05/19 07:46:27;;;;;;;0.63;0.45;;;;;;;;;;4995992;28;20095;-88
2022/05/19 07:48:54;;;;;;;1.70;0.90;;;;;;;;;;4993531;28;20385;-88
2022/05/19 07:51:21;;;;;;;1.63;0.70;;;;;;;;;;4995125;28;20037;-88
2022/05/19 07:53:49;;;;;;;1.13;0.52;;;;;;;;;;5011243;28;20042;-88
2022/05/19 07:56:14;;;;;;;;;;;;;;;;;;4998996;28;20033;-88
2022/05/19 07:58:40;;;;;;;0.98;0.50;;;;;;;;;;5000513;28;19939;-88
2022/05/19 08:01:05;;;;;;;0.73;0.40;;;;;;;;;;5012447;28;20374;-88
2022/05/19 08:03:31;;;;;;;1.27;0.57;;;;;;;;;;5011565;28;20034;-88
2022/05/19 08:05:56;;;;;;;0.50;0.30;;;;;;;;;;4995951;28;20038;-87
2022/05/19 08:08:22;;;;;;;1.50;0.70;;;;;;;;;;4995271;28;20397;-86
2022/05/19 08:10:47;;;;;;;0.45;0.30;;;;;;;;;;4994834;28;20092;-87
2022/05/19 08:15:56;;;;;;;0.43;0.25;;;;;;;;;;5014195;28;20039;-85
2022/05/19 08:18:23;;;;;;;1.75;0.63;;;;;;;;;;4995221;28;20037;-89
2022/05/19 08:20:56;;;;;;;0.98;0.50;;;;;;;;;;4993053;28;20108;-88
2022/05/19 08:23:27;;;;;;;2.13;0.60;;;;;;;;;;4982254;28;20041;-88
2022/05/19 08:25:53;;;;;;;1.48;0.70;;;;;;;;;;4995416;28;20080;-89
2022/05/19 08:28:19;;;;;;;0.80;0.50;;;;;;;;;;4992229;28;20048;-87
2022/05/19 08:30:47;;;;;;;0.63;0.40;;;;;;;;;;4993752;28;20088;-87
2022/05/19 08:33:13;;;;;;;0.63;0.38;;;;;;;;;;5012181;28;20063;-88
2022/05/19 08:35:39;;;;;;;0.57;0.30;;;;;;;;;;4997428;28;20875;-85
2022/05/19 08:38:04;;;;;;;0.43;0.20;;;;;;;;;;4996939;28;20390;-88
2022/05/19 08:40:35;;;;;;;1.48;0.55;;;;;;;;;;4979171;28;20116;-89
2022/05/19 08:43:00;;;;;;;1.48;0.57;;;;;;;;;;4988405;28;20102;-88
2022/05/19 08:45:35;;;;;;;0.38;0.22;;;;;;;;;;4984784;28;20109;-87
2022/05/19 08:48:04;;;;;;;0.45;0.20;;;;;;;;;;4992628;28;20049;-89
2022/05/19 08:51:10;;;;;;;1.27;0.43;;;;;;;;;;5007302;28;20105;-89
2022/05/19 08:53:39;;;;;;;1.88;0.47;;;;;;;;;;5004582;28;20108;-88
2022/05/19 08:56:26;;;;;;;7.00;0.75;;;;;;;;;;4996671;28;20591;-90
2022/05/19 08:59:17;;;;;;;0.52;0.22;;;;;;;;;;5029543;28;20041;-89
2022/05/19 09:01:53;;;;;;;0.70;0.40;;;;;;;;;;4994296;28;20052;-88
2022/05/19 09:04:21;;;;;;;1.83;0.60;;;;;;;;;;4999561;28;20137;-89
2022/05/19 09:09:47;;;;;;;0.40;0.17;;;;;;;;;;5015232;28;20059;-89
2022/05/19 09:12:18;;;;;;;0.50;0.20;;;;;;;;;;5028584;28;20123;-90
2022/05/19 09:14:43;;;;;;;0.30;0.20;;;;;;;;;;5007932;28;20044;-89
2022/05/19 09:17:10;;;;;;;0.60;0.27;;;;;;;;;;4994100;28;20709;-89
2022/05/19 09:19:41;;;;;;;0.75;0.40;;;;;;;;;;5007771;28;20034;-89
2022/05/19 09:22:12;;;;;;;1.25;0.40;;;;;;;;;;4981684;28;20038;-89
2022/05/19 09:24:38;;;;;;;0.45;0.28;;;;;;;;;;4995508;28;20074;-89
2022/05/19 09:27:04;;;;;;;0.70;0.25;;;;;;;;;;5009988;28;20378;-89
2022/05/19 09:29:43;;;;;;;0.75;0.40;;;;;;;;;;4998184;28;20056;-90
2022/05/19 09:32:15;;;;;;;0.88;0.30;;;;;;;;;;4992797;28;20041;-89
2022/05/19 09:34:46;;;;;;;0.88;0.38;;;;;;;;;;4997619;28;20025;-87
2022/05/19 09:37:16;;;;;;;4.88;0.73;;;;;;;;;;4993618;28;20029;-89
2022/05/19 09:39:52;;;;;;;1.42;0.50;;;;;;;;;;5028781;28;20045;-88
2022/05/19 09:42:31;;;;;;;0.82;0.30;;;;;;;;;;5008879;28;20044;-89
2022/05/19 09:44:59;;;;;;;0.88;0.30;;;;;;;;;;5007098;28;20041;-88
2022/05/19 09:47:30;;;;;;;0.70;0.38;;;;;;;;;;4995251;28;20112;-90
2022/05/19 09:50:11;;;;;;;1.17;0.50;;;;;;;;;;4995182;28;20064;-88
2022/05/19 09:52:40;;;;;;;0.25;0.15;;;;;;;;;;5014193;28;20037;-87
2022/05/19 09:55:07;;;;;;;0.38;0.20;;;;;;;;;;5000176;28;20473;-87
2022/05/19 09:57:37;;;;;;;0.85;0.40;;;;;;;;;;4998471;28;20539;-88
2022/05/19 10:00:09;;;;;;;0.80;0.45;;;;;;;;;;4995036;28;20048;-87
2022/05/19 10:02:38;;;;;;;1.00;0.30;;;;;;;;;;4979563;28;20033;-86
2022/05/19 10:05:32;;;;;;;0.88;0.40;;;;;;;;;;4981771;28;20053;-92
2022/05/19 10:08:05;;;;;;;1.73;0.43;;;;;;;;;;4974513;28;20041;-92
2022/05/19 10:10:33;;;;;;;0.20;0.10;;;;;;;;;;5002215;28;20042;-83
2022/05/19 10:13:08;;;;;;;0.45;0.20;;;;;;;;;;4996013;28;20034;-87
2022/05/19 10:15:42;;;;;;;0.63;0.25;;;;;;;;;;5004670;28;20033;-89
2022/05/19 10:18:46;;;;;;;0.80;0.35;;;;;;;;;;4979837;28;20432;-91
2022/05/19 10:21:14;;;;;;;0.85;0.43;;;;;;;;;;5001560;28;20523;-89
2022/05/19 10:23:58;;;;;;;1.00;0.30;;;;;;;;;;5034767;28;20399;-89
2022/05/19 10:26:52;;;;;;;0.52;0.20;;;;;;;;;;5002050;28;20120;-88
2022/05/19 10:32:23;;;;;;;0.63;0.20;;;;;;;;;;5016097;28;20072;-86
2022/05/19 10:34:58;;;;;;;0.10;0.10;;;;;;;;;;5031155;28;20140;-88
2022/05/19 10:37:41;;;;;;;0.52;0.20;;;;;;;;;;5014361;28;20037;-83
2022/05/19 10:40:08;;;;;;;0.85;0.40;;;;;;;;;;5015562;28;20117;-84
2022/05/19 10:42:43;;;;;;;0.40;0.20;;;;;;;;;;5010487;28;20560;-91
2022/05/19 10:45:23;;;;;;;0.20;0.10;;;;;;;;;;5017905;28;20045;-88
2022/05/19 10:48:33;;;;;;;0.63;0.22;;;;;;;;;;5018655;28;20053;-90
2022/05/19 10:51:13;;;;;;;4.68;0.30;;;;;;;;;;5013249;28;20489;-92
2022/05/19 10:54:03;;;;;;;0.85;0.35;;;;;;;;;;5033461;28;20042;-93
2022/05/19 10:56:52;;;;;;;0.85;0.20;;;;;;;;;;5016423;28;20042;-88
2022/05/19 10:59:53;;;;;;;1.00;0.38;;;;;;;;;;5018679;28;20033;-85
2022/05/19 11:02:38;;;;;;;1.05;0.50;;;;;;;;;;4951807;28;20622;-89
2022/05/19 11:05:22;;;;;;;0.45;0.20;;;;;;;;;;5011677;28;20116;-89
2022/05/19 11:08:02;;;;;;;0.70;0.30;;;;;;;;;;4978770;28;20033;-90
2022/05/19 11:10:31;;;;;;;0.65;0.32;;;;;;;;;;4991223;28;20493;-87
2022/05/19 11:13:30;;;;;;;4.35;1.00;;;;;;;;;;4981830;28;20060;-86
2022/05/19 11:16:04;;;;;;;0.47;0.22;;;;;;;;;;5010957;28;20033;-85
2022/05/19 11:18:39;;;;;;;0.43;0.17;;;;;;;;;;5007022;28;20044;-92
2022/05/19 11:21:19;;;;;;;4.75;0.22;;;;;;;;;;5002253;28;20034;-92
2022/05/19 11:23:59;;;;;;;0.82;0.43;;;;;;;;;;4981533;28;20480;-88
2022/05/19 11:26:34;;;;;;;0.63;0.32;;;;;;;;;;4987632;28;20873;-91
2022/05/19 11:29:09;;;;;;;0.80;0.32;;;;;;;;;;5004635;28;20549;-91
2022/05/19 11:31:44;;;;;;;0.80;0.45;;;;;;;;;;4996412;28;20494;-90
2022/05/19 11:34:20;;;;;;;0.82;0.38;;;;;;;;;;4981108;28;20488;-89
2022/05/19 11:37:26;;;;;;;0.30;0.10;;;;;;;;;;4998281;28;20448;-88
2022/05/19 11:40:11;;;;;;;0.43;0.20;;;;;;;;;;5002268;28;20057;-91
2022/05/19 11:43:00;;;;;;;1.05;0.45;;;;;;;;;;4991227;28;20045;-92
2022/05/19 11:45:58;;;;;;;0.82;0.40;;;;;;;;;;4974014;28;20080;-92
2022/05/19 11:57:14;;;;;;;0.93;0.40;;;;;;;;;;5014689;28;20495;-92
2022/05/19 11:59:46;;;;;;;0.63;0.17;;;;;;;;;;5015287;28;20428;-90
2022/05/19 12:02:15;;;;;;;1.50;0.40;;;;;;;;;;4996093;28;20041;-90
2022/05/19 12:04:43;;;;;;;0.50;0.28;;;;;;;;;;5015029;28;20056;-95
2022/05/19 12:07:09;;;;;;;0.82;0.30;;;;;;;;;;4997880;28;20057;-92
2022/05/19 12:09:38;;;;;;;1.30;0.30;;;;;;;;;;5015707;28;20045;-91
2022/05/19 12:12:04;;;;;;;0.65;0.32;;;;;;;;;;5017401;28;20034;-89
2022/05/19 12:14:37;;;;;;;1.02;0.50;;;;;;;;;;5014978;28;20049;-91
2022/05/19 12:17:03;;;;;;;0.80;0.40;;;;;;;;;;5016199;28;20038;-91
2022/05/19 12:19:41;;;;;;;0.90;0.40;;;;;;;;;;5019356;28;20044;-92
2022/05/19 12:22:10;;;;;;;0.47;0.20;;;;;;;;;;5016493;28;20037;-91
2022/05/19 12:24:50;;;;;;;0.35;0.15;;;;;;;;;;5014110;28;20043;-89
2022/05/19 12:27:22;;;;;;;0.50;0.20;;;;;;;;;;4996691;28;20090;-87
2022/05/19 12:29:59;;;;;;;0.60;0.32;;;;;;;;;;4995882;28;20041;-84
2022/05/19 12:32:36;;;;;;;0.80;0.40;;;;;;;;;;4971652;28;20037;-87
2022/05/19 12:35:09;;;;;;;0.50;0.30;;;;;;;;;;4997156;28;20090;-84
2022/05/19 12:37:34;;;;;;;0.70;0.38;;;;;;;;;;5001237;28;20104;-86
2022/05/19 12:40:37;;;;;;;0.95;0.40;;;;;;;;;;5008556;28;20448;-86
2022/05/19 12:43:17;;;;;;;1.00;0.45;;;;;;;;;;5010288;28;20033;-85
2022/05/19 12:45:55;;;;;;;0.32;0.20;;;;;;;;;;4994949;28;20397;-86
2022/05/19 12:48:44;;;;;;;0.40;0.20;;;;;;;;;;4991853;28;20037;-85
2022/05/19 12:51:17;;;;;;;0.45;0.22;;;;;;;;;;4983306;28;20072;-83
2022/05/19 12:53:51;;;;;;;0.50;0.25;;;;;;;;;;4970688;28;20050;-85
2022/05/19 12:56:38;;;;;;;0.50;0.20;;;;;;;;;;5004091;28;20050;-83
2022/05/19 12:59:05;;;;;;;0.65;0.32;;;;;;;;;;5012337;28;20553;-82
2022/05/19 13:01:33;;;;;;;2.30;0.60;;;;;;;;;;4994085;28;20125;-84
2022/05/19 13:04:22;;;;;;;1.48;0.52;;;;;;;;;;4996012;28;20768;-83
2022/05/19 13:06:54;;;;;;;0.77;0.30;;;;;;;;;;4993763;28;20435;-85
2022/05/19 13:09:25;;;;;;;0.60;0.38;;;;;;;;;;4980978;28;20034;-85
2022/05/19 13:11:54;;;;;;;0.50;0.30;;;;;;;;;;4995278;28;20485;-83
2022/05/19 13:14:23;;;;;;;0.38;0.20;;;;;;;;;;5011462;28;20253;-82
2022/05/19 13:16:51;;;;;;;0.90;0.50;;;;;;;;;;4979794;28;20049;-82
2022/05/19 13:19:30;;;;;;;0.93;0.45;;;;;;;;;;4993744;28;20045;-84
2022/05/19 13:22:06;;;;;;;0.55;0.30;;;;;;;;;;4992313;28;20041;-85
2022/05/19 13:24:37;;;;;;;1.65;0.70;;;;;;;;;;5008970;28;20026;-84
2022/05/19 13:32:35;;;;;;;1.15;0.60;;;;;;;;;;5018259;28;20048;-86
2022/05/19 13:35:06;;;;;;;0.20;0.10;;;;;;;;;;4996555;28;20030;-85
2022/05/19 13:37:33;;;;;;;1.00;0.45;;;;;;;;;;4996553;28;20092;-86
2022/05/19 13:40:30;;;;;;;0.70;0.30;;;;;;;;;;4979881;28;20564;-84
2022/05/19 13:43:08;;;;;;;4.82;0.70;;;;;;;;;;5014686;28;20591;-83
2022/05/19 13:45:39;;;;;;;0.80;0.30;;;;;;;;;;5014181;28;20037;-87
2022/05/19 13:48:27;;;;;;;0.20;0.10;;;;;;;;;;5031961;28;20037;-85
2022/05/19 13:50:52;;;;;;;0.73;0.35;;;;;;;;;;5016485;28;20108;-85
2022/05/19 13:53:20;;;;;;;0.65;0.40;;;;;;;;;;4999275;28;20589;-85
2022/05/19 13:55:54;;;;;;;1.15;0.45;;;;;;;;;;4997916;28;20041;-84
2022/05/19 13:58:21;;;;;;;1.08;0.40;;;;;;;;;;5029990;28;20034;-86
2022/05/19 14:00:46;;;;;;;1.45;0.50;;;;;;;;;;4996984;28;20087;-87
2022/05/19 14:03:12;;;;;;;1.08;0.75;;;;;;;;;;5013654;28;20477;-87
2022/05/19 14:05:40;;;;;;;0.30;0.20;;;;;;;;;;4998648;28;20092;-86
2022/05/19 14:08:14;;;;;;;1.30;0.60;;;;;;;;;;4988256;28;20477;-84
2022/05/19 14:10:49;;;;;;;0.90;0.52;;;;;;;;;;4996532;28;20030;-83
2022/05/19 14:13:16;;;;;;;1.05;0.47;;;;;;;;;;5014101;28;20041;-83
2022/05/19 14:15:51;;;;;;;0.93;0.47;;;;;;;;;;5012974;28;20064;-86
2022/05/19 14:18:23;;;;;;;0.85;0.30;;;;;;;;;;5014883;28;20045;-84
2022/05/19 14:20:51;;;;;;;0.15;0.10;;;;;;;;;;5011696;28;20041;-86
2022/05/19 14:23:20;;;;;;;0.90;0.32;;;;;;;;;;5031816;28;20524;-85
2022/05/19 14:25:47;;;;;;;0.40;0.20;;;;;;;;;;5015478;28;20025;-85
2022/05/19 14:28:33;;;;;;;1.02;0.60;;;;;;;;;;5030679;28;20029;-87
2022/05/19 14:31:08;;;;;;;0.60;0.30;;;;;;;;;;5013093;28;20112;-83
2022/05/19 14:33:41;;;;;;;1.75;0.73;;;;;;;;;;4998043;28;20033;-85
2022/05/19 14:36:11;;;;;;;0.65;0.32;;;;;;;;;;5013833;28;20036;-87
2022/05/19 14:38:49;;;;;;;0.55;0.30;;;;;;;;;;5003451;28;20069;-85
2022/05/19 14:44:09;;;;;;;1.50;0.40;;;;;;;;;;5015751;28;20123;-86
2022/05/19 14:46:47;;;;;;;0.85;0.35;;;;;;;;;;5029844;28;20156;-84
2022/05/19 14:49:14;;;;;;;0.80;0.45;;;;;;;;;;5018932;28;20044;-83
2022/05/19 14:51:42;;;;;;;5.38;0.47;;;;;;;;;;4996805;28;20112;-85
2022/05/19 14:54:10;;;;;;;0.40;0.28;;;;;;;;;;4996208;28;20034;-85
2022/05/19 14:56:41;;;;;;;0.80;0.43;;;;;;;;;;5014007;28;20389;-85
2022/05/19 14:59:10;;;;;;;1.52;0.57;;;;;;;;;;5003869;28;20037;-85
2022/05/19 15:01:36;;;;;;;1.05;0.40;;;;;;;;;;5013773;28;20040;-85
2022/05/19 15:04:02;;;;;;;0.70;0.27;;;;;;;;;;5000114;28;20508;-85
2022/05/19 15:06:27;;;;;;;0.70;0.30;;;;;;;;;;5012544;28;20067;-85
2022/05/19 15:08:54;;;;;;;1.30;0.50;;;;;;;;;;4997751;28;20388;-86
2022/05/19 15:11:20;;;;;;;0.25;0.20;;;;;;;;;;5013367;28;20041;-85
2022/05/19 15:13:46;;;;;;;1.27;0.70;;;;;;;;;;4997787;28;20037;-87
2022/05/19 15:16:13;;;;;;;0.60;0.28;;;;;;;;;;5012934;28;20440;-85
2022/05/19 15:18:39;;;;;;;0.68;0.30;;;;;;;;;;5013213;28;20041;-87
2022/05/19 15:21:04;;;;;;;0.65;0.32;;;;;;;;;;5011522;28;20491;-85
2022/05/19 15:23:29;;;;;;;1.23;0.70;;;;;;;;;;4997677;28;20045;-84
2022/05/19 15:25:55;;;;;;;0.60;0.20;;;;;;;;;;5000664;28;20029;-83
2022/05/19 15:28:21;;;;;;;0.70;0.30;;;;;;;;;;5014352;28;20147;-84
2022/05/19 15:30:47;;;;;;;0.88;0.50;;;;;;;;;;4996757;28;20060;-85
2022/05/19 15:33:14;;;;;;;0.80;0.30;;;;;;;;;;4997532;28;20492;-86